Time;durP1;ratioP1;P1;durP2;ratioP2;P2;SDS_P1;SDS_P2;PMS_P1;PMS_P2;Temp;Humidity;BMP_temperature;BMP_pressure;BME280_temperature;BME280_humidity;BME280_pressure;Samples;Min_cycle;Max_cycle;Signal;HPM_P1;HPM_P2
2023/06/03 00:00:43;;;;;;;30.38;8.57;;;;;;;11.87;98.30;101918.19;5101955;28;20179;-77
2023/06/03 00:03:11;;;;;;;20.58;8.68;;;;;;;11.89;98.25;101914.47;5081088;28;20039;-77
2023/06/03 00:05:38;;;;;;;28.45;8.98;;;;;;;11.81;98.69;101910.50;5103746;28;20062;-77
2023/06/03 00:08:04;;;;;;;21.65;8.30;;;;;;;11.82;98.49;101912.25;5077442;28;20028;-78
2023/06/03 00:10:29;;;;;;;21.13;8.60;;;;;;;11.79;98.26;101907.91;5085881;28;20039;-77
2023/06/03 00:12:55;;;;;;;20.55;8.68;;;;;;;11.78;97.86;101911.56;5099923;28;20035;-78
2023/06/03 00:15:20;;;;;;;21.58;9.20;;;;;;;11.80;98.56;101911.47;5080462;28;20027;-78
2023/06/03 00:17:45;;;;;;;21.25;8.73;;;;;;;11.77;98.49;101909.84;5092106;28;20107;-78
2023/06/03 00:20:11;;;;;;;22.23;8.52;;;;;;;11.75;98.62;101905.50;5073449;28;20425;-77
2023/06/03 00:22:37;;;;;;;22.58;9.68;;;;;;;11.72;98.31;101915.47;5078834;28;20118;-77
2023/06/03 00:25:07;;;;;;;19.25;8.27;;;;;;;11.71;98.50;101907.50;5084496;28;20031;-77
2023/06/03 00:27:36;;;;;;;20.73;9.35;;;;;;;11.70;98.53;101916.56;5080557;28;20038;-78
2023/06/03 00:30:06;;;;;;;20.40;9.65;;;;;;;11.69;98.69;101918.38;5099511;28;20028;-78
2023/06/03 00:32:31;;;;;;;;;;;;;;;11.82;95.69;101915.78;5083278;28;20126;-77
2023/06/03 00:34:56;;;;;;;23.23;9.85;;;;;;;11.67;98.02;101914.03;5104738;28;20010;-77
2023/06/03 00:37:22;;;;;;;24.70;9.80;;;;;;;11.65;98.07;101918.66;5099996;28;20088;-78
2023/06/03 00:39:47;;;;;;;21.70;10.13;;;;;;;11.62;98.39;101916.16;5074662;28;20399;-77
2023/06/03 00:42:13;;;;;;;25.25;10.10;;;;;;;11.60;98.12;101913.56;5081247;28;20455;-77
2023/06/03 00:44:38;;;;;;;21.90;9.38;;;;;;;11.57;98.15;101911.06;5082311;28;20077;-78
2023/06/03 00:47:04;;;;;;;21.90;9.68;;;;;;;11.51;98.25;101914.97;5084164;28;20027;-77
2023/06/03 00:49:31;;;;;;;24.20;9.25;;;;;;;11.47;98.06;101913.41;5084370;28;20028;-78
2023/06/03 00:51:58;;;;;;;20.83;8.70;;;;;;;11.47;98.00;101918.81;5097993;28;20416;-78
2023/06/03 00:54:23;;;;;;;24.27;9.02;;;;;;;11.44;98.14;101913.59;5074444;28;20028;-77
2023/06/03 00:56:49;;;;;;;20.80;9.05;;;;;;;11.43;98.57;101917.25;5085717;28;20384;-77
2023/06/03 00:59:16;;;;;;;22.65;9.45;;;;;;;11.40;97.93;101914.75;5080956;28;20024;-78
2023/06/03 01:01:44;;;;;;;22.02;9.73;;;;;;;11.40;97.99;101912.06;5110307;28;20096;-76
2023/06/03 01:04:11;;;;;;;22.77;9.77;;;;;;;11.36;98.07;101921.25;5103245;28;20024;-75
2023/06/03 01:06:55;;;;;;;20.83;9.70;;;;;;;11.36;97.21;101915.88;5119309;28;20118;-75
2023/06/03 01:09:36;;;;;;;25.48;9.63;;;;;;;11.36;97.75;101915.88;5094023;28;20027;-75
2023/06/03 01:12:26;;;;;;;21.90;9.55;;;;;;;11.35;97.47;101908.78;5100138;28;20107;-75
2023/06/03 01:14:59;;;;;;;21.15;9.60;;;;;;;11.27;98.63;101919.13;5117333;28;20027;-76
2023/06/03 01:17:27;;;;;;;25.40;10.23;;;;;;;11.22;97.40;101907.78;5106605;28;20008;-75
2023/06/03 01:19:56;;;;;;;24.73;9.98;;;;;;;11.19;98.07;101909.69;5092896;28;20024;-75
2023/06/03 01:22:26;;;;;;;21.70;10.15;;;;;;;11.17;98.30;101908.03;5106645;28;20053;-76
2023/06/03 01:25:03;;;;;;;21.83;9.15;;;;;;;11.17;97.92;101908.03;5095953;28;20075;-75
2023/06/03 01:27:29;;;;;;;24.73;9.48;;;;;;;11.14;97.28;101908.22;5120134;28;20044;-76
2023/06/03 01:29:54;;;;;;;23.65;9.60;;;;;;;11.10;97.61;101910.22;5102448;28;20059;-76
2023/06/03 01:32:20;;;;;;;21.15;9.52;;;;;;;11.08;97.80;101908.56;5123184;28;20099;-75
2023/06/03 01:34:46;;;;;;;24.85;8.95;;;;;;;11.06;97.43;101913.19;5107317;28;20076;-75
2023/06/03 01:37:12;;;;;;;20.67;8.77;;;;;;;11.01;97.71;101910.75;5107116;28;20023;-76
2023/06/03 01:39:41;;;;;;;22.35;9.27;;;;;;;11.00;97.26;101907.19;5099279;28;20028;-75
2023/06/03 01:42:11;;;;;;;22.45;9.55;;;;;;;11.00;97.27;101909.03;5099919;28;20026;-76
2023/06/03 01:44:37;;;;;;;25.60;9.48;;;;;;;10.94;97.36;101904.88;5121443;28;20024;-75
2023/06/03 01:47:03;;;;;;;22.02;9.98;;;;;;;10.93;97.31;101902.28;5124448;28;20111;-76
2023/06/03 01:49:31;;;;;;;21.48;9.23;;;;;;;10.91;97.15;101899.69;5097801;28;20031;-75
2023/06/03 01:52:00;;;;;;;21.15;8.95;;;;;;;10.89;97.53;101916.84;5107414;28;20073;-76
2023/06/03 01:54:27;;;;;;;20.48;9.52;;;;;;;10.89;97.46;101912.31;5105880;28;20110;-75
2023/06/03 01:56:54;;;;;;;20.98;8.88;;;;;;;10.86;97.44;101906.28;5121526;28;20044;-75
2023/06/03 01:59:23;;;;;;;20.50;9.00;;;;;;;10.84;96.21;101903.66;5124958;28;20085;-75
2023/06/03 02:01:51;;;;;;;22.45;9.27;;;;;;;10.84;96.54;101906.38;5106593;28;20019;-76
2023/06/03 02:04:17;;;;;;;22.37;9.73;;;;;;;10.81;96.81;101903.84;5120170;28;20010;-75
2023/06/03 02:06:48;;;;;;;24.80;9.75;;;;;;;10.79;97.03;101895.00;5106587;28;20417;-75
2023/06/03 02:09:13;;;;;;;20.23;8.93;;;;;;;10.76;97.07;101905.91;5116890;28;20112;-76
2023/06/03 02:11:41;;;;;;;23.25;9.38;;;;;;;10.73;97.20;101907.00;5123037;28;20032;-76
2023/06/03 02:14:07;;;;;;;23.17;9.40;;;;;;;10.75;96.88;101912.28;5103384;28;20028;-76
2023/06/03 02:16:32;;;;;;;24.45;10.10;;;;;;;10.76;96.42;101906.81;5105842;28;20057;-75
2023/06/03 02:18:57;;;;;;;23.95;10.02;;;;;;;10.72;96.59;101898.97;5115573;28;20023;-76
2023/06/03 02:21:22;;;;;;;21.15;8.60;;;;;;;10.71;96.96;101902.66;5104247;28;20077;-75
2023/06/03 02:23:48;;;;;;;21.75;9.27;;;;;;;10.70;96.67;101901.75;5104931;28;20087;-76
2023/06/03 02:26:13;;;;;;;20.85;8.23;;;;;;;10.70;97.02;101906.28;5099299;28;20039;-76
2023/06/03 02:28:39;;;;;;;24.38;9.43;;;;;;;10.73;97.16;101907.00;5118227;28;20062;-75
2023/06/03 02:31:04;;;;;;;23.63;9.20;;;;;;;10.71;97.07;101900.81;5105361;28;20032;-75
2023/06/03 02:33:29;;;;;;;24.85;9.77;;;;;;;10.74;97.09;101903.31;5116404;28;20044;-75
2023/06/03 02:35:55;;;;;;;24.90;9.68;;;;;;;10.72;97.15;101889.13;5100608;28;20028;-75
2023/06/03 02:38:20;;;;;;;20.92;9.02;;;;;;;10.73;97.72;101907.00;5123724;28;20038;-76
2023/06/03 02:40:45;;;;;;;21.55;8.43;;;;;;;10.74;97.88;101903.31;5115335;28;20060;-75
2023/06/03 02:43:11;;;;;;;20.88;9.07;;;;;;;10.73;98.12;101907.00;5106872;28;20042;-75
2023/06/03 02:45:36;;;;;;;22.48;9.10;;;;;;;10.74;98.59;101905.16;5100607;28;20050;-76
2023/06/03 02:48:01;;;;;;;19.10;8.43;;;;;;;10.75;98.31;101897.00;5121739;28;20448;-76
2023/06/03 02:50:26;;;;;;;23.50;9.40;;;;;;;10.75;98.49;101910.44;5106687;28;20039;-75
2023/06/03 02:52:52;;;;;;;20.65;8.65;;;;;;;10.73;98.62;101903.41;5123098;28;20062;-76
2023/06/03 02:55:17;;;;;;;21.13;8.18;;;;;;;10.74;98.81;101908.69;5104154;28;20121;-75
2023/06/03 02:57:42;;;;;;;22.08;9.35;;;;;;;10.77;98.63;101900.47;5100652;28;20044;-75
2023/06/03 03:00:11;;;;;;;19.58;8.15;;;;;;;10.78;99.01;101909.41;5104480;28;20370;-75
2023/06/03 03:02:37;;;;;;;22.20;8.57;;;;;;;10.83;98.21;101902.81;5122317;28;20027;-76
2023/06/03 03:05:02;;;;;;;20.60;8.68;;;;;;;10.82;97.93;101906.44;5124073;28;20032;-75
2023/06/03 03:07:28;;;;;;;19.83;8.18;;;;;;;10.84;97.99;101901.84;5107697;28;20062;-76
2023/06/03 03:09:53;;;;;;;21.33;8.45;;;;;;;10.83;97.60;101905.50;5125865;28;20035;-76
2023/06/03 03:12:19;;;;;;;22.20;8.73;;;;;;;10.82;97.89;101902.88;5119891;28;20033;-75
2023/06/03 03:14:44;;;;;;;22.33;8.48;;;;;;;10.80;97.44;101904.78;5107831;28;20071;-75
2023/06/03 03:17:10;;;;;;;20.23;8.65;;;;;;;10.82;97.74;101906.44;5124708;28;20031;-76
2023/06/03 03:19:36;;;;;;;21.48;8.45;;;;;;;10.80;97.31;101916.41;5104410;28;20020;-75
2023/06/03 03:22:02;;;;;;;19.60;8.63;;;;;;;10.76;97.45;101917.56;5124187;28;20058;-76
2023/06/03 03:24:30;;;;;;;21.33;8.65;;;;;;;10.74;97.40;101908.69;5128194;28;20019;-75
2023/06/03 03:26:56;;;;;;;21.80;8.52;;;;;;;10.73;97.51;101909.69;5113338;28;20040;-76
2023/06/03 03:29:23;;;;;;;22.85;9.07;;;;;;;10.71;97.40;101914.25;5102415;28;20028;-76
2023/06/03 03:31:53;;;;;;;20.70;8.73;;;;;;;10.70;97.09;101917.88;5099934;28;20446;-75
2023/06/03 03:34:18;;;;;;;20.90;7.53;;;;;;;10.69;96.79;101921.56;5100911;28;20035;-75
2023/06/03 03:36:45;;;;;;;21.42;7.32;;;;;;;10.65;97.26;101922.69;5107477;28;20019;-76
2023/06/03 03:39:11;;;;;;;22.50;8.75;;;;;;;10.66;97.31;101921.72;5115663;28;20024;-75
2023/06/03 03:41:41;;;;;;;21.15;8.50;;;;;;;10.66;97.43;101924.41;5126245;28;20096;-75
2023/06/03 03:44:07;;;;;;;23.15;8.02;;;;;;;10.64;97.16;101924.50;5100258;28;20027;-75
2023/06/03 03:46:32;;;;;;;21.23;8.85;;;;;;;10.63;97.23;101929.94;5122571;28;20092;-75
2023/06/03 03:48:58;;;;;;;19.58;8.23;;;;;;;10.63;97.10;101919.19;5091477;28;20103;-76
2023/06/03 03:51:23;;;;;;;20.75;8.02;;;;;;;10.64;96.69;101924.50;5118706;28;20025;-76
2023/06/03 03:53:48;;;;;;;19.98;8.85;;;;;;;10.66;97.03;101922.59;5126578;28;20104;-76
2023/06/03 03:56:18;;;;;;;18.73;8.23;;;;;;;10.61;96.30;101923.78;5121049;28;20092;-76
2023/06/03 03:58:44;;;;;;;20.42;8.07;;;;;;;10.60;96.88;101922.94;5102613;28;20466;-75
2023/06/03 04:01:18;;;;;;;20.90;7.78;;;;;;;10.60;97.54;101932.81;5124264;28;20134;-75
2023/06/03 04:03:45;;;;;;;24.45;9.40;;;;;;;10.62;97.51;101925.53;5125246;28;20028;-76
2023/06/03 04:06:24;;;;;;;20.15;8.00;;;;;;;10.62;97.52;101918.34;5104022;28;20020;-75
2023/06/03 04:08:52;;;;;;;20.40;8.47;;;;;;;10.64;97.19;101918.25;5101093;28;20033;-75
2023/06/03 04:11:26;;;;;;;21.13;8.18;;;;;;;10.65;97.09;101922.69;5118172;28;20084;-76
2023/06/03 04:13:52;;;;;;;21.38;7.82;;;;;;;10.65;97.06;101928.06;5100534;28;20039;-76
2023/06/03 04:16:53;;;;;;;21.63;8.73;;;;;;;10.71;96.66;101927.69;5112358;28;20043;-76
2023/06/03 04:19:30;;;;;;;20.60;7.57;;;;;;;10.67;96.60;101926.13;5093568;28;20036;-76
2023/06/03 04:21:57;;;;;;;20.23;8.27;;;;;;;10.68;97.22;101927.88;5107750;28;20019;-76
2023/06/03 04:24:24;;;;;;;19.75;8.75;;;;;;;10.65;97.16;101926.22;5114708;28;20058;-76
2023/06/03 04:26:49;;;;;;;21.90;8.57;;;;;;;10.69;96.94;101931.41;5118773;28;20040;-76
2023/06/03 04:29:15;;;;;;;20.40;8.15;;;;;;;10.73;97.47;101928.50;5120105;28;20091;-76
2023/06/03 04:31:41;;;;;;;21.05;8.32;;;;;;;10.76;97.09;101933.69;5123854;28;20015;-76
2023/06/03 04:34:06;;;;;;;19.85;8.32;;;;;;;10.77;97.76;101931.88;5121187;28;20032;-75
2023/06/03 04:36:31;;;;;;;21.45;8.52;;;;;;;10.80;96.86;101934.38;5122856;28;20031;-75
2023/06/03 04:38:58;;;;;;;19.77;7.50;;;;;;;10.80;96.90;101937.94;5124553;28;20015;-76
2023/06/03 04:41:27;;;;;;;18.75;7.38;;;;;;;10.81;96.80;101939.66;5124820;28;20035;-76
2023/06/03 04:43:53;;;;;;;20.40;7.80;;;;;;;10.86;96.80;101934.03;5114967;28;20027;-76
2023/06/03 04:46:19;;;;;;;19.17;7.55;;;;;;;10.92;96.25;101938.19;5114918;28;20076;-76
2023/06/03 04:48:45;;;;;;;20.45;7.97;;;;;;;10.92;97.10;101927.44;5127287;28;20035;-75
2023/06/03 04:51:11;;;;;;;19.17;7.50;;;;;;;10.94;97.06;101941.69;5098497;28;20031;-76
2023/06/03 04:53:36;;;;;;;23.08;8.45;;;;;;;10.99;95.79;101934.19;5105459;28;20154;-76
2023/06/03 04:56:03;;;;;;;20.92;7.90;;;;;;;11.06;95.23;101932.88;5103768;28;20035;-75
2023/06/03 04:58:29;;;;;;;20.00;7.93;;;;;;;11.10;94.63;101938.94;5105135;28;20038;-75
2023/06/03 05:00:55;;;;;;;21.17;7.75;;;;;;;11.13;93.96;101942.34;5116122;28;20055;-76
2023/06/03 05:03:20;;;;;;;23.52;8.77;;;;;;;11.19;94.82;101935.72;5118146;28;20038;-75
2023/06/03 05:05:45;;;;;;;22.50;8.20;;;;;;;11.25;93.54;101946.13;5105102;28;20407;-76
2023/06/03 05:08:11;;;;;;;19.77;7.72;;;;;;;11.30;93.80;101943.16;5102183;28;20015;-76
2023/06/03 05:10:37;;;;;;;22.45;8.35;;;;;;;11.32;95.05;101942.13;5119493;28;20035;-75
2023/06/03 05:13:03;;;;;;;19.73;8.13;;;;;;;11.35;93.52;101941.94;5115236;28;20059;-76
2023/06/03 05:15:29;;;;;;;19.73;7.25;;;;;;;11.39;91.79;101934.56;5123503;28;20044;-75
2023/06/03 05:17:54;;;;;;;14.90;6.10;;;;;;;11.46;91.70;101943.97;5104143;28;20032;-76
2023/06/03 05:20:19;;;;;;;19.90;7.28;;;;;;;11.49;91.73;101949.22;5120858;28;20036;-75
2023/06/03 05:22:45;;;;;;;19.00;7.53;;;;;;;11.55;92.04;101947.94;5101826;28;20024;-76
2023/06/03 05:25:10;;;;;;;21.25;6.85;;;;;;;11.59;92.74;101946.81;5102076;28;20034;-76
2023/06/03 05:27:35;;;;;;;20.48;7.82;;;;;;;11.66;91.13;101944.63;5109391;28;20024;-76
2023/06/03 05:30:01;;;;;;;19.40;7.50;;;;;;;11.68;91.50;101942.69;5120538;28;20085;-77
2023/06/03 05:32:26;;;;;;;20.70;7.82;;;;;;;11.75;89.88;101943.22;5120848;28;20095;-76
2023/06/03 05:34:51;;;;;;;22.98;6.95;;;;;;;11.79;88.54;101944.75;5120646;28;20049;-75
2023/06/03 05:37:17;;;;;;;17.75;6.80;;;;;;;11.85;89.06;101945.22;5101985;28;20023;-76
2023/06/03 05:39:43;;;;;;;17.75;7.50;;;;;;;11.91;85.89;101951.22;5117920;28;20051;-76
2023/06/03 05:42:08;;;;;;;18.83;6.85;;;;;;;11.94;85.70;101948.38;5116958;28;20053;-76
2023/06/03 05:44:33;;;;;;;23.48;7.50;;;;;;;11.97;86.97;101943.66;5118489;28;20024;-75
2023/06/03 05:46:59;;;;;;;17.88;6.70;;;;;;;12.03;88.81;101940.56;5102153;28;20020;-76
2023/06/03 05:49:24;;;;;;;20.17;6.80;;;;;;;12.06;89.03;101942.22;5098942;28;20020;-75
2023/06/03 05:51:50;;;;;;;20.25;7.15;;;;;;;12.13;86.40;101938.16;5103073;28;20027;-76
2023/06/03 05:54:15;;;;;;;17.33;5.65;;;;;;;12.17;85.41;101946.94;5095199;28;20047;-76
2023/06/03 05:56:40;;;;;;;17.70;6.35;;;;;;;12.23;85.98;101944.72;5099461;28;20051;-76
2023/06/03 05:59:06;;;;;;;17.42;6.18;;;;;;;12.29;87.74;101942.63;5116528;28;20028;-77
2023/06/03 06:01:33;;;;;;;17.27;6.28;;;;;;;12.35;85.24;101953.00;5124836;28;20057;-76
2023/06/03 06:03:58;;;;;;;16.92;5.95;;;;;;;12.42;81.79;101940.88;5124464;28;20027;-76
2023/06/03 06:06:24;;;;;;;19.23;7.20;;;;;;;12.50;87.11;101949.31;5105047;28;20111;-76
2023/06/03 06:08:49;;;;;;;19.60;6.60;;;;;;;12.61;87.55;101958.53;5122480;28;20034;-76
2023/06/03 06:11:15;;;;;;;16.75;6.13;;;;;;;12.69;85.43;101950.84;5124510;28;20083;-76
2023/06/03 06:13:40;;;;;;;19.85;6.32;;;;;;;12.77;83.47;101943.97;5107086;28;20020;-76
2023/06/03 06:16:06;;;;;;;18.38;6.82;;;;;;;12.83;83.20;101942.72;5105008;28;20050;-76
2023/06/03 06:18:31;;;;;;;18.50;6.22;;;;;;;12.90;85.32;101946.75;5097832;28;20035;-77
2023/06/03 06:20:57;;;;;;;17.35;6.38;;;;;;;12.97;87.27;101949.03;5127035;28;19999;-76
2023/06/03 06:23:23;;;;;;;17.38;5.63;;;;;;;12.99;83.88;101952.47;5106898;28;20028;-76
2023/06/03 06:25:50;;;;;;;19.95;6.05;;;;;;;13.06;82.28;101956.50;5106092;28;20023;-77
2023/06/03 06:28:22;;;;;;;17.52;5.25;;;;;;;13.09;82.60;101951.78;5123133;28;20043;-77
2023/06/03 06:30:52;;;;;;;15.73;5.70;;;;;;;13.18;80.76;101960.25;5123751;28;20028;-76
2023/06/03 06:33:18;;;;;;;17.08;5.80;;;;;;;13.22;80.23;101956.38;5124570;28;20031;-76
2023/06/03 06:35:44;;;;;;;21.67;6.25;;;;;;;13.27;76.76;101963.19;5126739;28;20079;-76
2023/06/03 06:38:10;;;;;;;16.08;5.20;;;;;;;13.35;75.21;101959.16;5105888;28;20052;-77
2023/06/03 06:40:38;;;;;;;20.30;6.05;;;;;;;13.40;77.46;101957.88;5108002;28;20020;-77
2023/06/03 06:43:05;;;;;;;20.23;5.47;;;;;;;13.48;76.85;101961.88;5108975;28;20110;-76
2023/06/03 06:45:33;;;;;;;17.98;5.25;;;;;;;13.54;74.05;101956.06;5099882;28;20017;-76
2023/06/03 06:48:10;;;;;;;20.13;5.68;;;;;;;13.62;74.72;101961.81;5101756;28;20075;-76
2023/06/03 06:50:46;;;;;;;16.35;5.22;;;;;;;13.67;71.58;101959.66;5117974;28;20195;-75
2023/06/03 06:53:13;;;;;;;12.93;5.05;;;;;;;13.75;75.95;101960.00;5123955;28;20027;-77
2023/06/03 06:55:53;;;;;;;16.13;5.88;;;;;;;13.82;78.29;101968.53;5107664;28;20040;-77
2023/06/03 06:58:19;;;;;;;;;;;;;;;13.88;76.00;101962.72;5116641;28;20062;-76
2023/06/03 07:00:45;;;;;;;15.38;5.32;;;;;;;13.93;73.83;101965.94;5105455;28;19958;-77
2023/06/03 07:03:15;;;;;;;20.00;5.63;;;;;;;14.01;71.40;101967.25;5101262;28;20024;-76
2023/06/03 07:05:41;;;;;;;12.48;4.18;;;;;;;14.05;68.53;101966.94;5102172;28;20090;-76
2023/06/03 07:08:06;;;;;;;16.85;5.53;;;;;;;14.13;72.50;101963.72;5100640;28;20024;-77
2023/06/03 07:10:32;;;;;;;17.95;4.97;;;;;;;14.20;68.09;101959.56;5117302;28;20019;-77
2023/06/03 07:12:58;;;;;;;13.32;5.13;;;;;;;14.30;69.22;101965.19;5108334;27;20016;-76
2023/06/03 07:15:24;;;;;;;16.40;4.72;;;;;;;14.37;71.92;101960.22;5095900;28;20012;-76
2023/06/03 07:17:53;;;;;;;14.70;4.80;;;;;;;14.48;73.60;101944.06;5104753;28;20016;-77
2023/06/03 07:20:35;;;;;;;16.63;5.45;;;;;;;14.54;72.97;101954.47;5104727;28;20027;-76
2023/06/03 07:23:07;;;;;;;17.33;6.35;;;;;;;14.60;70.32;101958.56;5106328;28;20027;-76
2023/06/03 07:25:40;;;;;;;16.58;5.50;;;;;;;14.66;69.43;101959.00;5119415;28;20028;-77
2023/06/03 07:28:33;;;;;;;19.50;5.90;;;;;;;14.73;71.74;101955.84;5129796;28;20015;-76
2023/06/03 07:31:03;;;;;;;13.18;4.57;;;;;;;14.80;71.33;101955.31;5106764;28;20100;-77
2023/06/03 07:33:33;;;;;;;16.83;4.65;;;;;;;14.84;66.75;101956.78;5108989;28;20008;-77
2023/06/03 07:36:01;;;;;;;16.42;4.75;;;;;;;14.94;69.47;101958.81;5123888;28;20035;-76
2023/06/03 07:39:02;;;;;;;14.25;4.10;;;;;;;14.96;71.46;101954.16;5116570;28;20032;-77
2023/06/03 07:41:35;;;;;;;14.13;4.03;;;;;;;15.05;65.33;101952.59;5122518;28;20042;-78
2023/06/03 07:44:03;;;;;;;15.40;4.10;;;;;;;15.09;62.99;101949.53;5123500;28;20016;-76
2023/06/03 07:46:37;;;;;;;12.73;3.95;;;;;;;15.16;64.37;101956.22;5121957;28;20032;-76
2023/06/03 07:49:03;;;;;;;12.02;3.42;;;;;;;15.22;61.86;101956.75;5097454;28;20028;-76
2023/06/03 07:51:28;;;;;;;15.35;3.63;;;;;;;15.28;62.43;101959.84;5122868;28;20016;-76
2023/06/03 07:53:55;;;;;;;11.75;4.07;;;;;;;15.30;64.51;101963.31;5106481;28;20028;-77
2023/06/03 07:56:21;;;;;;;16.40;3.97;;;;;;;15.37;62.66;101970.00;5095596;28;20084;-76
2023/06/03 07:58:46;;;;;;;15.00;3.88;;;;;;;15.44;57.08;101970.38;5120193;28;20024;-76
2023/06/03 08:01:15;;;;;;;11.55;3.60;;;;;;;15.45;61.43;101964.00;5129472;28;20127;-76
2023/06/03 08:03:40;;;;;;;9.23;2.90;;;;;;;15.49;60.24;101967.31;5101423;28;20028;-77
2023/06/03 08:06:07;;;;;;;4.22;2.55;;;;;;;15.52;60.51;101970.69;5089631;28;20164;-76
2023/06/03 08:08:33;;;;;;;12.48;3.22;;;;;;;15.53;61.93;101963.41;5117753;28;20036;-76
2023/06/03 08:11:00;;;;;;;8.50;2.85;;;;;;;15.62;61.33;101957.25;5091950;28;20028;-77
2023/06/03 08:13:25;;;;;;;16.40;3.20;;;;;;;15.63;61.95;101959.00;5106173;28;20015;-76
2023/06/03 08:15:51;;;;;;;10.88;2.78;;;;;;;15.75;55.91;101967.16;5090205;28;20016;-78
2023/06/03 08:18:43;;;;;;;9.00;3.03;;;;;;;15.81;56.95;101966.72;5098232;28;20127;-77
2023/06/03 08:21:09;;;;;;;6.65;2.53;;;;;;;15.94;58.51;101955.78;5108965;28;20004;-77
2023/06/03 08:23:37;;;;;;;7.28;2.40;;;;;;;15.98;55.91;101957.28;5114274;28;20019;-77
2023/06/03 08:26:03;;;;;;;12.48;3.08;;;;;;;16.04;52.32;101963.06;5088526;28;20047;-75
2023/06/03 08:28:28;;;;;;;10.02;2.80;;;;;;;16.14;55.40;101952.38;5098599;28;20015;-76
2023/06/03 08:30:54;;;;;;;9.25;2.50;;;;;;;16.20;53.98;101956.44;5085827;28;20020;-77
2023/06/03 08:33:20;;;;;;;7.85;2.75;;;;;;;16.28;55.53;101953.97;5102035;28;20087;-76
2023/06/03 08:35:45;;;;;;;10.02;2.80;;;;;;;16.32;57.31;101960.88;5093181;28;20047;-76
2023/06/03 08:38:11;;;;;;;10.38;3.13;;;;;;;16.35;54.04;101959.78;5114759;28;20122;-76
2023/06/03 08:40:45;;;;;;;8.63;2.42;;;;;;;16.41;49.62;101975.56;5100601;28;20076;-78
2023/06/03 08:43:11;;;;;;;10.48;2.72;;;;;;;16.45;56.56;101960.75;5100961;28;20039;-76
2023/06/03 08:45:49;;;;;;;10.90;2.72;;;;;;;16.48;52.45;101962.38;5107786;28;20039;-77
2023/06/03 08:48:36;;;;;;;5.93;2.33;;;;;;;16.55;53.11;101959.03;5121513;28;20050;-77
2023/06/03 08:51:05;;;;;;;8.45;2.38;;;;;;;16.61;51.01;101952.22;5107451;28;20039;-76
2023/06/03 08:53:47;;;;;;;9.50;3.10;;;;;;;16.67;51.39;101954.44;5100403;28;20503;-76
2023/06/03 08:56:16;;;;;;;5.60;2.40;;;;;;;16.73;48.77;101953.09;5100800;28;20044;-76
2023/06/03 08:58:46;;;;;;;6.18;2.47;;;;;;;16.81;47.96;101961.47;5078732;28;20021;-78
2023/06/03 09:01:14;;;;;;;8.15;2.72;;;;;;;16.90;47.63;101973.47;5076780;28;20127;-76
2023/06/03 09:03:42;;;;;;;10.48;2.50;;;;;;;16.92;48.02;101969.59;5102762;28;20051;-75
2023/06/03 09:06:08;;;;;;;14.15;3.13;;;;;;;16.98;47.18;101956.53;5100035;28;20028;-75
2023/06/03 09:08:35;;;;;;;13.80;3.10;;;;;;;17.01;46.46;101951.69;5114155;28;20123;-76
2023/06/03 09:11:02;;;;;;;6.90;2.30;;;;;;;17.09;48.46;101954.63;5101937;28;20127;-77
2023/06/03 09:13:30;;;;;;;8.38;2.78;;;;;;;17.09;48.18;101951.91;5122182;28;20034;-75
2023/06/03 09:15:56;;;;;;;12.73;2.65;;;;;;;17.13;51.61;101944.41;5101006;28;20443;-75
2023/06/03 09:18:21;;;;;;;8.60;2.40;;;;;;;17.18;49.18;101957.59;5119666;28;20027;-78
2023/06/03 09:20:47;;;;;;;6.40;2.33;;;;;;;17.22;45.25;101950.88;5094864;28;20135;-76
2023/06/03 09:23:13;;;;;;;6.20;2.75;;;;;;;17.28;45.16;101953.09;5112384;28;20030;-75
2023/06/03 09:25:38;;;;;;;6.95;2.40;;;;;;;17.34;45.61;101946.28;5085473;28;20078;-75
2023/06/03 09:28:04;;;;;;;10.25;2.40;;;;;;;17.36;44.33;101957.88;5091432;28;20059;-75
2023/06/03 09:30:33;;;;;;;11.20;2.38;;;;;;;17.43;45.55;101962.66;5099025;28;20035;-76
2023/06/03 09:32:58;;;;;;;6.63;2.50;;;;;;;17.43;42.61;101959.94;5095005;28;20023;-75
2023/06/03 09:35:24;;;;;;;7.15;2.58;;;;;;;17.51;44.45;101953.00;5090217;28;20029;-75
2023/06/03 09:38:04;;;;;;;7.30;2.10;;;;;;;17.57;45.38;101952.47;5080137;28;20501;-75
2023/06/03 09:40:31;;;;;;;5.70;2.30;;;;;;;17.66;46.50;101957.13;5107587;28;20028;-74
2023/06/03 09:42:57;;;;;;;14.65;2.97;;;;;;;17.69;44.77;101956.84;5108406;28;20043;-75
2023/06/03 09:45:27;;;;;;;7.30;2.15;;;;;;;17.76;40.82;101944.47;5087298;28;20364;-74
2023/06/03 09:47:53;;;;;;;3.17;1.80;;;;;;;17.76;45.29;101952.63;5084662;28;20019;-75
2023/06/03 09:50:22;;;;;;;6.60;2.40;;;;;;;17.81;42.33;101960.38;5097173;28;20027;-74
2023/06/03 09:52:47;;;;;;;15.05;3.03;;;;;;;17.86;42.19;101954.53;5092139;28;20431;-74
2023/06/03 09:55:14;;;;;;;9.45;2.47;;;;;;;17.89;42.99;101952.44;5107826;28;20152;-75
2023/06/03 09:57:40;;;;;;;5.93;2.35;;;;;;;18.03;45.18;101958.53;5090449;28;20052;-74
2023/06/03 10:00:07;;;;;;;7.70;2.05;;;;;;;18.02;41.63;101960.38;5084648;28;20138;-74
2023/06/03 10:02:44;;;;;;;12.15;2.22;;;;;;;18.02;42.61;101968.53;5084705;28;20119;-74
2023/06/03 10:05:25;;;;;;;7.07;1.85;;;;;;;18.01;40.73;101955.06;5102987;28;20535;-74
2023/06/03 10:07:51;;;;;;;6.88;1.90;;;;;;;18.02;42.48;101959.53;5100627;28;20024;-76
2023/06/03 10:10:16;;;;;;;5.25;2.08;;;;;;;18.09;40.91;101968.88;5083170;28;20027;-75
2023/06/03 10:12:42;;;;;;;10.73;2.70;;;;;;;18.13;39.65;101949.44;5094749;28;20033;-75
2023/06/03 10:15:08;;;;;;;7.85;2.42;;;;;;;18.19;39.31;101952.63;5090215;28;20028;-75
2023/06/03 10:17:33;;;;;;;8.18;2.15;;;;;;;18.26;40.39;101956.50;5093058;28;20027;-74
2023/06/03 10:19:58;;;;;;;7.10;2.05;;;;;;;18.24;41.09;101956.63;5103153;28;20027;-75
2023/06/03 10:22:26;;;;;;;9.85;2.45;;;;;;;18.28;42.45;101946.34;5085820;28;20463;-75
2023/06/03 10:24:54;;;;;;;9.63;2.20;;;;;;;18.29;42.49;101950.81;5108047;28;20016;-75
2023/06/03 10:27:20;;;;;;;5.20;1.80;;;;;;;18.31;40.02;101951.53;5106676;28;20020;-74
2023/06/03 10:29:50;;;;;;;10.52;2.50;;;;;;;18.33;37.30;101954.94;5093805;28;20030;-75
2023/06/03 10:32:16;;;;;;;8.38;2.35;;;;;;;18.42;39.87;101954.16;5114214;28;20031;-75
2023/06/03 10:34:44;;;;;;;4.60;2.10;;;;;;;18.47;40.23;101951.88;5108676;28;20040;-74
2023/06/03 10:37:12;;;;;;;6.00;2.30;;;;;;;18.48;38.89;101948.16;5109337;28;20024;-74
2023/06/03 10:39:39;;;;;;;7.45;1.98;;;;;;;18.52;36.94;101937.84;5082309;28;20314;-76
2023/06/03 10:42:06;;;;;;;5.40;2.17;;;;;;;18.52;38.80;101951.44;5111456;28;20027;-75
2023/06/03 10:44:32;;;;;;;7.65;2.22;;;;;;;18.58;39.79;101942.75;5105275;28;20040;-74
2023/06/03 10:47:25;;;;;;;3.28;1.70;;;;;;;18.57;41.21;101941.03;5113962;28;20038;-75
2023/06/03 10:49:55;;;;;;;2.63;1.70;;;;;;;18.67;38.53;101936.47;5108228;28;20024;-75
2023/06/03 10:52:33;;;;;;;8.10;1.88;;;;;;;18.71;38.64;101942.47;5110700;28;20039;-74
2023/06/03 10:55:25;;;;;;;5.45;1.80;;;;;;;18.75;38.25;101938.47;5106431;28;20089;-74
2023/06/03 10:58:00;;;;;;;4.82;1.85;;;;;;;18.84;42.33;101937.66;5113134;28;20052;-75
2023/06/03 11:00:53;;;;;;;6.05;1.80;;;;;;;18.91;41.09;101942.56;5094213;28;20042;-75
2023/06/03 11:03:21;;;;;;;7.70;1.83;;;;;;;19.02;39.48;101934.28;5104919;28;20455;-74
2023/06/03 11:05:47;;;;;;;4.70;1.60;;;;;;;19.01;36.50;101938.00;5111197;28;20027;-74
2023/06/03 11:08:13;;;;;;;5.20;1.60;;;;;;;19.00;36.36;101936.28;5097564;28;20035;-75
2023/06/03 11:10:40;;;;;;;7.20;1.70;;;;;;;19.02;37.83;101926.13;5108726;28;20023;-75
2023/06/03 11:13:08;;;;;;;5.82;1.70;;;;;;;19.04;39.70;101933.13;5098358;28;20028;-75
2023/06/03 11:15:59;;;;;;;4.68;1.77;;;;;;;19.02;37.38;101934.28;5104152;28;20020;-74
2023/06/03 11:18:24;;;;;;;5.57;1.80;;;;;;;19.08;37.54;101932.81;5085301;28;20028;-75
2023/06/03 11:20:50;;;;;;;4.90;1.90;;;;;;;19.08;36.94;101928.25;5072211;28;20021;-74
2023/06/03 11:23:39;;;;;;;6.13;1.90;;;;;;;19.16;38.81;101938.44;5092781;28;20032;-75